sensor_id;sensor_type;location;lat;lon;timestamp;temperature;humidity
22738;DHT22;11536;50.860;4.286;2024-02-28T00:00:29;5.70;99.90
22738;DHT22;11536;50.860;4.286;2024-02-28T00:02:54;5.70;99.90
22738;DHT22;11536;50.860;4.286;2024-02-28T00:05:20;5.70;99.90
22738;DHT22;11536;50.860;4.286;2024-02-28T00:07:46;5.60;99.90
22738;DHT22;11536;50.860;4.286;2024-02-28T00:10:13;5.60;99.90
22738;DHT22;11536;50.860;4.286;2024-02-28T00:12:38;5.60;99.90
22738;DHT22;11536;50.860;4.286;2024-02-28T00:15:05;5.60;99.90
22738;DHT22;11536;50.860;4.286;2024-02-28T00:17:38;5.50;99.90
22738;DHT22;11536;50.860;4.286;2024-02-28T00:20:04;5.50;99.90
22738;DHT22;11536;50.860;4.286;2024-02-28T00:22:29;5.50;99.90
22738;DHT22;11536;50.860;4.286;2024-02-28T00:24:56;5.50;99.90
22738;DHT22;11536;50.860;4.286;2024-02-28T00:27:22;5.50;99.90
22738;DHT22;11536;50.860;4.286;2024-02-28T00:29:47;5.50;99.90
22738;DHT22;11536;50.860;4.286;2024-02-28T00:32:13;5.40;99.90
22738;DHT22;11536;50.860;4.286;2024-02-28T00:34:38;5.40;99.90
22738;DHT22;11536;50.860;4.286;2024-02-28T00:37:04;5.40;99.90
22738;DHT22;11536;50.860;4.286;2024-02-28T00:39:30;5.40;99.90
22738;DHT22;11536;50.860;4.286;2024-02-28T00:41:55;5.40;99.90
22738;DHT22;11536;50.860;4.286;2024-02-28T00:44:21;5.40;99.90
22738;DHT22;11536;50.860;4.286;2024-02-28T00:46:46;5.40;99.90
22738;DHT22;11536;50.860;4.286;2024-02-28T00:49:12;5.30;99.90
22738;DHT22;11536;50.860;4.286;2024-02-28T00:51:37;5.30;99.90
22738;DHT22;11536;50.860;4.286;2024-02-28T00:54:03;5.30;99.90
22738;DHT22;11536;50.860;4.286;2024-02-28T00:56:30;5.30;99.90
22738;DHT22;11536;50.860;4.286;2024-02-28T00:58:56;5.30;99.90
22738;DHT22;11536;50.860;4.286;2024-02-28T01:01:22;5.20;99.90
22738;DHT22;11536;50.860;4.286;2024-02-28T01:03:48;5.10;99.90
22738;DHT22;11536;50.860;4.286;2024-02-28T01:06:13;5.10;99.90
22738;DHT22;11536;50.860;4.286;2024-02-28T01:08:40;5.10;99.90
22738;DHT22;11536;50.860;4.286;2024-02-28T01:11:05;5.10;99.90
22738;DHT22;11536;50.860;4.286;2024-02-28T01:13:31;5.10;99.90
22738;DHT22;11536;50.860;4.286;2024-02-28T01:15:57;5.10;99.90
22738;DHT22;11536;50.860;4.286;2024-02-28T01:18:24;5.10;99.90
22738;DHT22;11536;50.860;4.286;2024-02-28T01:20:50;5.10;99.90
22738;DHT22;11536;50.860;4.286;2024-02-28T01:23:16;5.10;99.90
22738;DHT22;11536;50.860;4.286;2024-02-28T01:25:42;5.10;99.90
22738;DHT22;11536;50.860;4.286;2024-02-28T01:28:08;5.10;99.90
22738;DHT22;11536;50.860;4.286;2024-02-28T01:30:33;5.10;99.90
22738;DHT22;11536;50.860;4.286;2024-02-28T01:32:59;5.10;99.90
22738;DHT22;11536;50.860;4.286;2024-02-28T01:35:25;5.10;99.90
22738;DHT22;11536;50.860;4.286;2024-02-28T01:37:50;5.10;99.90
22738;DHT22;11536;50.860;4.286;2024-02-28T01:40:16;5.10;99.90
22738;DHT22;11536;50.860;4.286;2024-02-28T01:42:42;5.10;99.90
22738;DHT22;11536;50.860;4.286;2024-02-28T01:45:10;5.10;99.90
22738;DHT22;11536;50.860;4.286;2024-02-28T01:47:38;5.10;99.90
22738;DHT22;11536;50.860;4.286;2024-02-28T01:50:04;5.10;99.90
22738;DHT22;11536;50.860;4.286;2024-02-28T01:52:30;5.10;99.90
22738;DHT22;11536;50.860;4.286;2024-02-28T01:54:56;5.10;99.90
22738;DHT22;11536;50.860;4.286;2024-02-28T01:57:22;5.10;99.90
22738;DHT22;11536;50.860;4.286;2024-02-28T01:59:48;5.10;99.90
22738;DHT22;11536;50.860;4.286;2024-02-28T02:02:14;5.10;99.90
22738;DHT22;11536;50.860;4.286;2024-02-28T02:04:39;5.10;99.90
22738;DHT22;11536;50.860;4.286;2024-02-28T02:07:06;5.10;99.90
22738;DHT22;11536;50.860;4.286;2024-02-28T02:09:33;5.10;99.90
22738;DHT22;11536;50.860;4.286;2024-02-28T02:11:59;5.00;99.90
22738;DHT22;11536;50.860;4.286;2024-02-28T02:14:25;5.00;99.90
22738;DHT22;11536;50.860;4.286;2024-02-28T02:16:51;5.00;99.90
22738;DHT22;11536;50.860;4.286;2024-02-28T02:19:16;4.90;99.90
22738;DHT22;11536;50.860;4.286;2024-02-28T02:21:50;4.90;99.90
22738;DHT22;11536;50.860;4.286;2024-02-28T02:24:17;4.90;99.90
22738;DHT22;11536;50.860;4.286;2024-02-28T02:26:43;4.90;99.90
22738;DHT22;11536;50.860;4.286;2024-02-28T02:29:11;4.90;99.90
22738;DHT22;11536;50.860;4.286;2024-02-28T02:31:36;4.80;99.90
22738;DHT22;11536;50.860;4.286;2024-02-28T02:34:02;4.90;99.90
22738;DHT22;11536;50.860;4.286;2024-02-28T02:36:27;4.70;99.90
22738;DHT22;11536;50.860;4.286;2024-02-28T02:38:53;4.70;99.90
22738;DHT22;11536;50.860;4.286;2024-02-28T02:41:19;4.70;99.90
22738;DHT22;11536;50.860;4.286;2024-02-28T02:43:44;4.70;99.90
22738;DHT22;11536;50.860;4.286;2024-02-28T02:46:10;4.70;99.90
22738;DHT22;11536;50.860;4.286;2024-02-28T02:48:35;4.70;99.90
22738;DHT22;11536;50.860;4.286;2024-02-28T02:51:02;4.70;99.90
22738;DHT22;11536;50.860;4.286;2024-02-28T02:53:27;4.70;99.90
22738;DHT22;11536;50.860;4.286;2024-02-28T02:55:53;4.70;99.90
22738;DHT22;11536;50.860;4.286;2024-02-28T02:58:19;4.80;99.90
22738;DHT22;11536;50.860;4.286;2024-02-28T03:00:45;4.80;99.90
22738;DHT22;11536;50.860;4.286;2024-02-28T03:03:10;4.80;99.90
22738;DHT22;11536;50.860;4.286;2024-02-28T03:05:36;4.70;99.90
22738;DHT22;11536;50.860;4.286;2024-02-28T03:08:02;4.70;99.90
22738;DHT22;11536;50.860;4.286;2024-02-28T03:10:28;4.80;99.90
22738;DHT22;11536;50.860;4.286;2024-02-28T03:12:54;4.70;99.90
22738;DHT22;11536;50.860;4.286;2024-02-28T03:15:20;4.70;99.90
22738;DHT22;11536;50.860;4.286;2024-02-28T03:17:45;4.70;99.90
22738;DHT22;11536;50.860;4.286;2024-02-28T03:20:11;4.70;99.90
22738;DHT22;11536;50.860;4.286;2024-02-28T03:22:40;4.70;99.90
22738;DHT22;11536;50.860;4.286;2024-02-28T03:25:06;4.70;99.90
22738;DHT22;11536;50.860;4.286;2024-02-28T03:27:32;4.70;99.90
22738;DHT22;11536;50.860;4.286;2024-02-28T03:29:57;4.70;99.90
22738;DHT22;11536;50.860;4.286;2024-02-28T03:32:23;4.60;99.90
22738;DHT22;11536;50.860;4.286;2024-02-28T03:34:49;4.60;99.90
22738;DHT22;11536;50.860;4.286;2024-02-28T03:37:14;4.60;99.90
22738;DHT22;11536;50.860;4.286;2024-02-28T03:39:40;4.60;99.90
22738;DHT22;11536;50.860;4.286;2024-02-28T03:42:06;4.60;99.90
22738;DHT22;11536;50.860;4.286;2024-02-28T03:44:31;4.60;99.90
22738;DHT22;11536;50.860;4.286;2024-02-28T03:46:57;4.50;99.90
22738;DHT22;11536;50.860;4.286;2024-02-28T03:49:23;4.50;99.90
22738;DHT22;11536;50.860;4.286;2024-02-28T03:51:48;4.60;99.90
22738;DHT22;11536;50.860;4.286;2024-02-28T03:54:14;4.50;99.90
22738;DHT22;11536;50.860;4.286;2024-02-28T03:56:40;4.50;99.90
22738;DHT22;11536;50.860;4.286;2024-02-28T03:59:05;4.50;99.90
22738;DHT22;11536;50.860;4.286;2024-02-28T04:01:31;4.50;99.90
22738;DHT22;11536;50.860;4.286;2024-02-28T04:03:56;4.50;99.90
22738;DHT22;11536;50.860;4.286;2024-02-28T04:06:22;4.50;99.90
22738;DHT22;11536;50.860;4.286;2024-02-28T04:08:48;4.50;99.90
22738;DHT22;11536;50.860;4.286;2024-02-28T04:11:13;4.50;99.90
22738;DHT22;11536;50.860;4.286;2024-02-28T04:13:40;4.50;99.90
22738;DHT22;11536;50.860;4.286;2024-02-28T04:16:07;4.40;99.90
22738;DHT22;11536;50.860;4.286;2024-02-28T04:18:33;4.40;99.90
22738;DHT22;11536;50.860;4.286;2024-02-28T04:20:59;4.40;99.90
22738;DHT22;11536;50.860;4.286;2024-02-28T04:23:24;4.40;99.90
22738;DHT22;11536;50.860;4.286;2024-02-28T04:25:50;4.40;99.90
22738;DHT22;11536;50.860;4.286;2024-02-28T04:28:16;4.40;99.90
22738;DHT22;11536;50.860;4.286;2024-02-28T04:30:41;4.30;99.90
22738;DHT22;11536;50.860;4.286;2024-02-28T04:33:07;4.30;99.90
22738;DHT22;11536;50.860;4.286;2024-02-28T04:35:33;4.30;99.90
22738;DHT22;11536;50.860;4.286;2024-02-28T04:37:59;4.30;99.90
22738;DHT22;11536;50.860;4.286;2024-02-28T04:40:24;4.30;99.90
22738;DHT22;11536;50.860;4.286;2024-02-28T04:42:50;4.30;99.90
22738;DHT22;11536;50.860;4.286;2024-02-28T04:45:16;4.30;99.90
22738;DHT22;11536;50.860;4.286;2024-02-28T04:47:41;4.30;99.90
22738;DHT22;11536;50.860;4.286;2024-02-28T04:50:07;4.30;99.90
22738;DHT22;11536;50.860;4.286;2024-02-28T04:52:33;4.30;99.90
22738;DHT22;11536;50.860;4.286;2024-02-28T04:54:59;4.30;99.90
22738;DHT22;11536;50.860;4.286;2024-02-28T04:57:25;4.30;99.90
22738;DHT22;11536;50.860;4.286;2024-02-28T04:59:51;4.20;99.90
22738;DHT22;11536;50.860;4.286;2024-02-28T05:02:16;4.30;99.90
22738;DHT22;11536;50.860;4.286;2024-02-28T05:04:43;4.30;99.90
22738;DHT22;11536;50.860;4.286;2024-02-28T05:07:08;4.30;99.90
22738;DHT22;11536;50.860;4.286;2024-02-28T05:09:34;4.30;99.90
22738;DHT22;11536;50.860;4.286;2024-02-28T05:12:03;4.30;99.90
22738;DHT22;11536;50.860;4.286;2024-02-28T05:14:29;4.30;99.90
22738;DHT22;11536;50.860;4.286;2024-02-28T05:16:54;4.30;99.90
22738;DHT22;11536;50.860;4.286;2024-02-28T05:19:20;4.30;99.90
22738;DHT22;11536;50.860;4.286;2024-02-28T05:21:46;4.30;99.90
22738;DHT22;11536;50.860;4.286;2024-02-28T05:24:12;4.30;99.90
22738;DHT22;11536;50.860;4.286;2024-02-28T05:26:38;4.30;99.90
22738;DHT22;11536;50.860;4.286;2024-02-28T05:29:04;4.30;99.90
22738;DHT22;11536;50.860;4.286;2024-02-28T05:31:30;4.30;99.90
22738;DHT22;11536;50.860;4.286;2024-02-28T05:34:00;4.30;99.90
22738;DHT22;11536;50.860;4.286;2024-02-28T05:36:28;4.40;99.90
22738;DHT22;11536;50.860;4.286;2024-02-28T05:38:55;4.40;99.90
22738;DHT22;11536;50.860;4.286;2024-02-28T05:41:21;4.40;99.90
22738;DHT22;11536;50.860;4.286;2024-02-28T05:43:47;4.40;99.90
22738;DHT22;11536;50.860;4.286;2024-02-28T05:46:14;4.40;99.90
22738;DHT22;11536;50.860;4.286;2024-02-28T05:48:46;4.40;99.90
22738;DHT22;11536;50.860;4.286;2024-02-28T05:51:12;4.40;99.90
22738;DHT22;11536;50.860;4.286;2024-02-28T05:53:38;4.50;99.90
22738;DHT22;11536;50.860;4.286;2024-02-28T05:56:05;4.40;99.90
22738;DHT22;11536;50.860;4.286;2024-02-28T05:58:38;4.40;99.90
22738;DHT22;11536;50.860;4.286;2024-02-28T06:01:04;4.40;99.90
22738;DHT22;11536;50.860;4.286;2024-02-28T06:03:29;4.40;99.90
22738;DHT22;11536;50.860;4.286;2024-02-28T06:05:55;4.40;99.90
22738;DHT22;11536;50.860;4.286;2024-02-28T06:08:23;4.40;99.90
22738;DHT22;11536;50.860;4.286;2024-02-28T06:10:48;4.40;99.90
22738;DHT22;11536;50.860;4.286;2024-02-28T06:13:14;4.50;99.90
22738;DHT22;11536;50.860;4.286;2024-02-28T06:15:40;4.50;99.90
22738;DHT22;11536;50.860;4.286;2024-02-28T06:18:05;4.50;99.90
22738;DHT22;11536;50.860;4.286;2024-02-28T06:20:31;4.50;99.90
22738;DHT22;11536;50.860;4.286;2024-02-28T06:22:57;4.60;99.90
22738;DHT22;11536;50.860;4.286;2024-02-28T06:25:22;4.60;99.90
22738;DHT22;11536;50.860;4.286;2024-02-28T06:27:49;4.60;99.90
22738;DHT22;11536;50.860;4.286;2024-02-28T06:30:16;4.70;99.90
22738;DHT22;11536;50.860;4.286;2024-02-28T06:32:42;4.70;99.90
22738;DHT22;11536;50.860;4.286;2024-02-28T06:35:08;4.70;99.90
22738;DHT22;11536;50.860;4.286;2024-02-28T06:37:34;4.70;99.90
22738;DHT22;11536;50.860;4.286;2024-02-28T06:40:00;4.80;99.90
22738;DHT22;11536;50.860;4.286;2024-02-28T06:42:26;4.80;99.90
22738;DHT22;11536;50.860;4.286;2024-02-28T06:44:52;4.80;99.90
22738;DHT22;11536;50.860;4.286;2024-02-28T06:47:17;4.90;99.90
22738;DHT22;11536;50.860;4.286;2024-02-28T06:49:45;4.90;99.90
22738;DHT22;11536;50.860;4.286;2024-02-28T06:52:12;5.00;99.90
22738;DHT22;11536;50.860;4.286;2024-02-28T06:54:37;5.00;99.90
22738;DHT22;11536;50.860;4.286;2024-02-28T06:57:03;5.00;99.90
22738;DHT22;11536;50.860;4.286;2024-02-28T06:59:28;5.10;99.90
22738;DHT22;11536;50.860;4.286;2024-02-28T07:01:54;5.10;99.90
22738;DHT22;11536;50.860;4.286;2024-02-28T07:04:20;5.10;99.90
22738;DHT22;11536;50.860;4.286;2024-02-28T07:06:45;5.10;99.90
22738;DHT22;11536;50.860;4.286;2024-02-28T07:09:11;5.20;99.90
22738;DHT22;11536;50.860;4.286;2024-02-28T07:11:38;5.20;99.90
22738;DHT22;11536;50.860;4.286;2024-02-28T07:14:06;5.20;99.90
22738;DHT22;11536;50.860;4.286;2024-02-28T07:16:31;5.30;99.90
22738;DHT22;11536;50.860;4.286;2024-02-28T07:19:00;5.30;99.90
22738;DHT22;11536;50.860;4.286;2024-02-28T07:21:26;5.30;99.90
22738;DHT22;11536;50.860;4.286;2024-02-28T07:23:51;5.40;99.90
22738;DHT22;11536;50.860;4.286;2024-02-28T07:26:17;5.40;99.90
22738;DHT22;11536;50.860;4.286;2024-02-28T07:28:43;5.50;99.90
22738;DHT22;11536;50.860;4.286;2024-02-28T07:31:35;5.60;99.90
22738;DHT22;11536;50.860;4.286;2024-02-28T07:34:00;5.60;99.90
22738;DHT22;11536;50.860;4.286;2024-02-28T07:36:26;5.70;99.90
22738;DHT22;11536;50.860;4.286;2024-02-28T07:38:51;5.70;99.90
22738;DHT22;11536;50.860;4.286;2024-02-28T07:41:18;5.70;99.90
22738;DHT22;11536;50.860;4.286;2024-02-28T07:43:44;5.80;99.90
22738;DHT22;11536;50.860;4.286;2024-02-28T07:46:10;5.80;99.90
22738;DHT22;11536;50.860;4.286;2024-02-28T07:48:37;5.80;99.90
22738;DHT22;11536;50.860;4.286;2024-02-28T07:51:06;5.90;99.90
22738;DHT22;11536;50.860;4.286;2024-02-28T07:53:35;6.00;99.90
22738;DHT22;11536;50.860;4.286;2024-02-28T07:56:02;6.00;99.90
22738;DHT22;11536;50.860;4.286;2024-02-28T07:58:29;6.10;99.90
22738;DHT22;11536;50.860;4.286;2024-02-28T08:01:04;6.10;99.90
22738;DHT22;11536;50.860;4.286;2024-02-28T08:03:30;6.10;99.90
22738;DHT22;11536;50.860;4.286;2024-02-28T08:05:56;6.20;99.90
22738;DHT22;11536;50.860;4.286;2024-02-28T08:08:21;6.20;99.90
22738;DHT22;11536;50.860;4.286;2024-02-28T08:10:47;6.30;99.90
22738;DHT22;11536;50.860;4.286;2024-02-28T08:13:14;6.30;99.90
22738;DHT22;11536;50.860;4.286;2024-02-28T08:15:39;6.30;99.90
22738;DHT22;11536;50.860;4.286;2024-02-28T08:18:05;6.40;99.90
22738;DHT22;11536;50.860;4.286;2024-02-28T08:20:31;6.40;99.90
22738;DHT22;11536;50.860;4.286;2024-02-28T08:22:56;6.50;99.90
22738;DHT22;11536;50.860;4.286;2024-02-28T08:25:23;6.50;99.90
22738;DHT22;11536;50.860;4.286;2024-02-28T08:27:49;6.60;99.90
22738;DHT22;11536;50.860;4.286;2024-02-28T08:30:15;6.60;99.90
22738;DHT22;11536;50.860;4.286;2024-02-28T08:32:41;6.60;99.90
22738;DHT22;11536;50.860;4.286;2024-02-28T08:35:08;6.70;99.90
22738;DHT22;11536;50.860;4.286;2024-02-28T08:37:34;6.70;99.90
22738;DHT22;11536;50.860;4.286;2024-02-28T08:39:59;6.70;99.90
22738;DHT22;11536;50.860;4.286;2024-02-28T08:42:25;6.70;99.90
22738;DHT22;11536;50.860;4.286;2024-02-28T08:44:54;6.70;99.90
22738;DHT22;11536;50.860;4.286;2024-02-28T08:47:25;6.70;99.90
22738;DHT22;11536;50.860;4.286;2024-02-28T08:49:52;6.70;99.90
22738;DHT22;11536;50.860;4.286;2024-02-28T08:52:18;6.80;99.90
22738;DHT22;11536;50.860;4.286;2024-02-28T08:54:43;6.80;99.90
22738;DHT22;11536;50.860;4.286;2024-02-28T08:57:09;6.80;99.90
22738;DHT22;11536;50.860;4.286;2024-02-28T08:59:34;6.80;99.90
22738;DHT22;11536;50.860;4.286;2024-02-28T09:02:00;6.80;99.90
22738;DHT22;11536;50.860;4.286;2024-02-28T09:04:25;6.90;99.90
22738;DHT22;11536;50.860;4.286;2024-02-28T09:06:51;6.90;99.90
22738;DHT22;11536;50.860;4.286;2024-02-28T09:09:18;6.90;99.90
22738;DHT22;11536;50.860;4.286;2024-02-28T09:11:44;6.90;99.90
22738;DHT22;11536;50.860;4.286;2024-02-28T09:14:09;7.00;99.90
22738;DHT22;11536;50.860;4.286;2024-02-28T09:16:35;6.90;99.90
22738;DHT22;11536;50.860;4.286;2024-02-28T09:19:02;7.00;99.90
22738;DHT22;11536;50.860;4.286;2024-02-28T09:21:29;7.00;99.90
22738;DHT22;11536;50.860;4.286;2024-02-28T09:23:55;7.00;99.90
22738;DHT22;11536;50.860;4.286;2024-02-28T09:26:20;7.00;99.90
22738;DHT22;11536;50.860;4.286;2024-02-28T09:28:46;7.10;99.90
22738;DHT22;11536;50.860;4.286;2024-02-28T09:31:12;7.10;99.90
22738;DHT22;11536;50.860;4.286;2024-02-28T09:33:37;7.10;99.90
22738;DHT22;11536;50.860;4.286;2024-02-28T09:36:04;7.10;99.90
22738;DHT22;11536;50.860;4.286;2024-02-28T09:38:30;7.10;99.90
22738;DHT22;11536;50.860;4.286;2024-02-28T09:40:58;7.10;99.90
22738;DHT22;11536;50.860;4.286;2024-02-28T09:43:30;7.20;99.90
22738;DHT22;11536;50.860;4.286;2024-02-28T09:46:05;7.30;99.90
22738;DHT22;11536;50.860;4.286;2024-02-28T09:48:31;7.30;99.90
22738;DHT22;11536;50.860;4.286;2024-02-28T09:50:57;7.30;99.90
22738;DHT22;11536;50.860;4.286;2024-02-28T09:53:23;7.40;99.90
22738;DHT22;11536;50.860;4.286;2024-02-28T09:55:52;7.40;99.90
22738;DHT22;11536;50.860;4.286;2024-02-28T09:58:19;7.50;99.90
22738;DHT22;11536;50.860;4.286;2024-02-28T10:00:47;7.60;99.90
22738;DHT22;11536;50.860;4.286;2024-02-28T10:03:16;7.60;99.90
22738;DHT22;11536;50.860;4.286;2024-02-28T10:05:44;7.60;99.90
22738;DHT22;11536;50.860;4.286;2024-02-28T10:08:10;7.70;99.90
22738;DHT22;11536;50.860;4.286;2024-02-28T10:10:37;7.70;99.90
22738;DHT22;11536;50.860;4.286;2024-02-28T10:13:05;7.80;99.90
22738;DHT22;11536;50.860;4.286;2024-02-28T10:15:31;7.80;99.90
22738;DHT22;11536;50.860;4.286;2024-02-28T10:17:57;7.80;99.90
22738;DHT22;11536;50.860;4.286;2024-02-28T10:20:22;7.90;99.90
22738;DHT22;11536;50.860;4.286;2024-02-28T10:22:48;8.00;99.90
22738;DHT22;11536;50.860;4.286;2024-02-28T10:25:13;8.00;99.90
22738;DHT22;11536;50.860;4.286;2024-02-28T10:27:40;8.00;99.90
22738;DHT22;11536;50.860;4.286;2024-02-28T10:30:07;8.10;99.90
22738;DHT22;11536;50.860;4.286;2024-02-28T10:32:33;8.20;99.90
22738;DHT22;11536;50.860;4.286;2024-02-28T10:35:06;8.20;99.90
22738;DHT22;11536;50.860;4.286;2024-02-28T10:37:32;8.30;99.90
22738;DHT22;11536;50.860;4.286;2024-02-28T10:39:58;8.30;99.90
22738;DHT22;11536;50.860;4.286;2024-02-28T10:42:26;8.40;99.90
22738;DHT22;11536;50.860;4.286;2024-02-28T10:44:55;8.40;99.90
22738;DHT22;11536;50.860;4.286;2024-02-28T10:47:24;8.50;99.90
22738;DHT22;11536;50.860;4.286;2024-02-28T10:49:50;8.50;99.90
22738;DHT22;11536;50.860;4.286;2024-02-28T10:52:19;8.50;99.90
22738;DHT22;11536;50.860;4.286;2024-02-28T10:54:53;8.60;99.90
22738;DHT22;11536;50.860;4.286;2024-02-28T10:57:19;8.80;99.90
22738;DHT22;11536;50.860;4.286;2024-02-28T10:59:46;8.80;99.90
22738;DHT22;11536;50.860;4.286;2024-02-28T11:02:12;8.80;99.90
22738;DHT22;11536;50.860;4.286;2024-02-28T11:04:38;8.90;99.90
22738;DHT22;11536;50.860;4.286;2024-02-28T11:07:05;9.00;99.90
22738;DHT22;11536;50.860;4.286;2024-02-28T11:09:31;9.00;99.90
22738;DHT22;11536;50.860;4.286;2024-02-28T11:11:57;9.00;99.90
22738;DHT22;11536;50.860;4.286;2024-02-28T11:14:23;9.10;99.90
22738;DHT22;11536;50.860;4.286;2024-02-28T11:17:05;9.10;99.90
22738;DHT22;11536;50.860;4.286;2024-02-28T11:19:32;9.20;99.90
22738;DHT22;11536;50.860;4.286;2024-02-28T11:21:59;9.20;99.90
22738;DHT22;11536;50.860;4.286;2024-02-28T11:24:29;9.30;99.90
22738;DHT22;11536;50.860;4.286;2024-02-28T11:26:56;9.40;99.90
22738;DHT22;11536;50.860;4.286;2024-02-28T11:29:25;9.40;99.90
22738;DHT22;11536;50.860;4.286;2024-02-28T11:31:51;9.50;99.90
22738;DHT22;11536;50.860;4.286;2024-02-28T11:34:17;9.60;99.90
22738;DHT22;11536;50.860;4.286;2024-02-28T11:36:47;9.60;99.90
22738;DHT22;11536;50.860;4.286;2024-02-28T11:39:13;9.70;99.90
22738;DHT22;11536;50.860;4.286;2024-02-28T11:41:39;9.70;99.90
22738;DHT22;11536;50.860;4.286;2024-02-28T11:44:05;9.70;99.90
22738;DHT22;11536;50.860;4.286;2024-02-28T11:46:31;9.70;99.90
22738;DHT22;11536;50.860;4.286;2024-02-28T11:48:56;9.70;99.90
22738;DHT22;11536;50.860;4.286;2024-02-28T11:51:22;9.70;99.90
22738;DHT22;11536;50.860;4.286;2024-02-28T11:53:48;9.80;99.90
22738;DHT22;11536;50.860;4.286;2024-02-28T11:56:14;9.80;99.90
22738;DHT22;11536;50.860;4.286;2024-02-28T11:58:52;9.90;99.90
22738;DHT22;11536;50.860;4.286;2024-02-28T12:04:04;10.00;99.90
22738;DHT22;11536;50.860;4.286;2024-02-28T12:06:37;10.10;99.90
22738;DHT22;11536;50.860;4.286;2024-02-28T12:09:06;10.20;99.90
22738;DHT22;11536;50.860;4.286;2024-02-28T12:11:36;10.20;99.90
22738;DHT22;11536;50.860;4.286;2024-02-28T12:14:07;10.30;99.90
22738;DHT22;11536;50.860;4.286;2024-02-28T12:16:37;10.30;99.90
22738;DHT22;11536;50.860;4.286;2024-02-28T12:19:11;10.40;99.90
22738;DHT22;11536;50.860;4.286;2024-02-28T12:21:37;10.50;99.90
22738;DHT22;11536;50.860;4.286;2024-02-28T12:24:04;10.50;99.90
22738;DHT22;11536;50.860;4.286;2024-02-28T12:26:30;10.50;99.90
22738;DHT22;11536;50.860;4.286;2024-02-28T12:28:56;10.60;99.90
22738;DHT22;11536;50.860;4.286;2024-02-28T12:31:21;10.60;99.90
22738;DHT22;11536;50.860;4.286;2024-02-28T12:33:47;10.60;99.90
22738;DHT22;11536;50.860;4.286;2024-02-28T12:36:13;10.70;99.90
22738;DHT22;11536;50.860;4.286;2024-02-28T12:38:39;10.80;99.90
22738;DHT22;11536;50.860;4.286;2024-02-28T12:41:06;10.80;99.90
22738;DHT22;11536;50.860;4.286;2024-02-28T12:43:32;10.90;99.90
22738;DHT22;11536;50.860;4.286;2024-02-28T12:45:58;10.90;99.90
22738;DHT22;11536;50.860;4.286;2024-02-28T12:48:24;10.90;99.90
22738;DHT22;11536;50.860;4.286;2024-02-28T12:50:50;10.90;99.90
22738;DHT22;11536;50.860;4.286;2024-02-28T12:53:16;10.90;99.90
22738;DHT22;11536;50.860;4.286;2024-02-28T12:55:42;10.90;99.90
22738;DHT22;11536;50.860;4.286;2024-02-28T12:58:08;10.80;99.90
22738;DHT22;11536;50.860;4.286;2024-02-28T13:00:33;10.70;99.90
22738;DHT22;11536;50.860;4.286;2024-02-28T13:02:59;10.70;99.90
22738;DHT22;11536;50.860;4.286;2024-02-28T13:05:25;10.70;99.90
22738;DHT22;11536;50.860;4.286;2024-02-28T13:07:51;10.70;99.90
22738;DHT22;11536;50.860;4.286;2024-02-28T13:10:18;10.70;99.90
22738;DHT22;11536;50.860;4.286;2024-02-28T13:12:44;10.80;99.90
22738;DHT22;11536;50.860;4.286;2024-02-28T13:15:13;10.70;99.90
22738;DHT22;11536;50.860;4.286;2024-02-28T13:17:39;10.80;99.90
22738;DHT22;11536;50.860;4.286;2024-02-28T13:20:07;10.80;99.90
22738;DHT22;11536;50.860;4.286;2024-02-28T13:22:33;10.80;99.90
22738;DHT22;11536;50.860;4.286;2024-02-28T13:24:58;10.90;99.90
22738;DHT22;11536;50.860;4.286;2024-02-28T13:27:25;10.90;99.90
22738;DHT22;11536;50.860;4.286;2024-02-28T13:29:51;10.90;99.90
22738;DHT22;11536;50.860;4.286;2024-02-28T13:32:17;10.90;99.90
22738;DHT22;11536;50.860;4.286;2024-02-28T13:34:43;10.90;99.90
22738;DHT22;11536;50.860;4.286;2024-02-28T13:37:09;10.90;99.90
22738;DHT22;11536;50.860;4.286;2024-02-28T13:39:38;10.90;99.90
22738;DHT22;11536;50.860;4.286;2024-02-28T13:42:03;10.90;99.90
22738;DHT22;11536;50.860;4.286;2024-02-28T13:44:32;10.80;99.90
22738;DHT22;11536;50.860;4.286;2024-02-28T13:47:00;11.00;99.90
22738;DHT22;11536;50.860;4.286;2024-02-28T13:49:26;10.90;99.90
22738;DHT22;11536;50.860;4.286;2024-02-28T13:51:52;11.00;99.90
22738;DHT22;11536;50.860;4.286;2024-02-28T13:54:17;11.00;99.90
22738;DHT22;11536;50.860;4.286;2024-02-28T13:56:43;11.00;99.90
22738;DHT22;11536;50.860;4.286;2024-02-28T13:59:08;11.00;99.90
22738;DHT22;11536;50.860;4.286;2024-02-28T14:01:35;11.10;99.90
22738;DHT22;11536;50.860;4.286;2024-02-28T14:04:01;11.00;99.90
22738;DHT22;11536;50.860;4.286;2024-02-28T14:06:28;11.10;99.90
22738;DHT22;11536;50.860;4.286;2024-02-28T14:08:54;11.00;99.90
22738;DHT22;11536;50.860;4.286;2024-02-28T14:11:20;11.00;99.90
22738;DHT22;11536;50.860;4.286;2024-02-28T14:13:46;11.00;99.90
22738;DHT22;11536;50.860;4.286;2024-02-28T14:16:12;11.00;99.90
22738;DHT22;11536;50.860;4.286;2024-02-28T14:18:37;11.00;99.90
22738;DHT22;11536;50.860;4.286;2024-02-28T14:21:04;11.00;99.90
22738;DHT22;11536;50.860;4.286;2024-02-28T14:23:30;11.00;99.90
22738;DHT22;11536;50.860;4.286;2024-02-28T14:25:56;11.00;99.90
22738;DHT22;11536;50.860;4.286;2024-02-28T14:28:25;11.00;99.90
22738;DHT22;11536;50.860;4.286;2024-02-28T14:30:51;11.00;99.90
22738;DHT22;11536;50.860;4.286;2024-02-28T14:33:17;11.00;99.90
22738;DHT22;11536;50.860;4.286;2024-02-28T14:35:44;11.00;99.90
22738;DHT22;11536;50.860;4.286;2024-02-28T14:38:09;11.00;99.90
22738;DHT22;11536;50.860;4.286;2024-02-28T14:40:35;11.00;99.90
22738;DHT22;11536;50.860;4.286;2024-02-28T14:43:02;11.00;99.90
22738;DHT22;11536;50.860;4.286;2024-02-28T14:45:27;11.00;99.90
22738;DHT22;11536;50.860;4.286;2024-02-28T14:47:53;11.00;99.90
22738;DHT22;11536;50.860;4.286;2024-02-28T14:50:22;11.00;99.90
22738;DHT22;11536;50.860;4.286;2024-02-28T14:52:51;11.00;99.90
22738;DHT22;11536;50.860;4.286;2024-02-28T14:55:17;11.10;99.90
22738;DHT22;11536;50.860;4.286;2024-02-28T14:57:43;11.00;99.90
22738;DHT22;11536;50.860;4.286;2024-02-28T15:00:09;11.10;99.90
22738;DHT22;11536;50.860;4.286;2024-02-28T15:02:40;11.10;99.90
22738;DHT22;11536;50.860;4.286;2024-02-28T15:05:06;11.10;99.90
22738;DHT22;11536;50.860;4.286;2024-02-28T15:07:35;11.10;99.90
22738;DHT22;11536;50.860;4.286;2024-02-28T15:10:02;11.10;99.90
22738;DHT22;11536;50.860;4.286;2024-02-28T15:12:30;11.10;99.90
22738;DHT22;11536;50.860;4.286;2024-02-28T15:14:56;11.10;99.90
22738;DHT22;11536;50.860;4.286;2024-02-28T15:17:22;11.10;99.90
22738;DHT22;11536;50.860;4.286;2024-02-28T15:19:48;11.10;99.90
22738;DHT22;11536;50.860;4.286;2024-02-28T15:22:14;11.10;99.90
22738;DHT22;11536;50.860;4.286;2024-02-28T15:24:39;11.10;99.90
22738;DHT22;11536;50.860;4.286;2024-02-28T15:27:06;11.10;99.90
22738;DHT22;11536;50.860;4.286;2024-02-28T15:29:32;11.10;99.90
22738;DHT22;11536;50.860;4.286;2024-02-28T15:31:58;11.10;99.90
22738;DHT22;11536;50.860;4.286;2024-02-28T15:34:23;11.10;99.90
22738;DHT22;11536;50.860;4.286;2024-02-28T15:36:49;11.10;99.90
22738;DHT22;11536;50.860;4.286;2024-02-28T15:39:15;11.10;99.90